Time;durP1;ratioP1;P1;durP2;ratioP2;P2;SDS_P1;SDS_P2;PMS_P1;PMS_P2;Temp;Humidity;BMP_temperature;BMP_pressure;BME280_temperature;BME280_humidity;BME280_pressure;Samples;Min_cycle;Max_cycle;Signal;HPM_P1;HPM_P2
2021/07/02 00:02:08;;;;;;;3.25;1.83;;;;;;;14.91;83.75;100612.25;5034092;28;20505;-80
2021/07/02 00:04:33;;;;;;;2.85;2.05;;;;;;;14.90;83.47;100610.59;5033845;28;20053;-79
2021/07/02 00:06:59;;;;;;;2.70;1.90;;;;;;;14.92;83.46;100613.06;5032897;28;20038;-81
2021/07/02 00:09:24;;;;;;;2.10;1.65;;;;;;;14.91;83.49;100606.91;5035048;28;20030;-80
2021/07/02 00:11:49;;;;;;;3.15;1.98;;;;;;;14.89;83.87;100613.44;5036606;28;20048;-79
2021/07/02 00:14:15;;;;;;;3.03;2.20;;;;;;;14.85;83.96;100612.97;5030746;28;20530;-80
2021/07/02 00:16:40;;;;;;;2.92;2.20;;;;;;;14.80;84.05;100608.19;5027538;28;20065;-80
2021/07/02 00:19:05;;;;;;;3.88;2.45;;;;;;;14.76;85.27;100616.69;5029321;28;20096;-79
2021/07/02 00:21:31;;;;;;;3.95;2.85;;;;;;;14.71;85.47;100611.06;5026064;28;20124;-81
2021/07/02 00:23:56;;;;;;;3.65;2.63;;;;;;;14.68;85.80;100611.41;5030829;28;20038;-80
2021/07/02 00:26:21;;;;;;;3.65;2.53;;;;;;;14.63;86.04;100604.81;5028738;28;20561;-79
2021/07/02 00:28:47;;;;;;;2.70;1.90;;;;;;;14.67;85.58;100607.09;5043220;28;20034;-80
2021/07/02 00:31:12;;;;;;;2.55;1.80;;;;;;;14.68;86.30;100606.09;5043446;28;20061;-80
2021/07/02 00:33:38;;;;;;;4.88;2.50;;;;;;;14.67;87.85;100604.44;5033559;28;20052;-79
2021/07/02 00:36:03;;;;;;;3.70;3.10;;;;;;;14.61;87.57;100605.94;5034572;28;20030;-80
2021/07/02 00:38:29;;;;;;;4.63;3.45;;;;;;;14.59;87.71;100600.00;5029282;28;20037;-81
2021/07/02 00:40:55;;;;;;;4.68;3.08;;;;;;;14.57;87.45;100594.03;5032717;28;20041;-80
2021/07/02 00:43:20;;;;;;;4.88;3.10;;;;;;;14.54;87.29;100597.88;5020551;28;20259;-80
2021/07/02 00:45:46;;;;;;;3.80;2.65;;;;;;;14.53;86.36;100604.16;5012972;28;20041;-79
2021/07/02 00:48:11;;;;;;;3.95;2.90;;;;;;;14.53;86.94;100600.66;5014203;28;20064;-79
2021/07/02 00:50:37;;;;;;;4.50;3.00;;;;;;;14.53;86.87;100598.81;5004975;28;20030;-80
2021/07/02 00:53:04;;;;;;;4.70;2.92;;;;;;;14.54;86.83;100594.34;5015248;28;20060;-79
2021/07/02 00:55:30;;;;;;;3.83;2.65;;;;;;;14.54;86.43;100594.34;5020900;28;20045;-80
2021/07/02 00:57:55;;;;;;;3.30;2.50;;;;;;;14.57;86.09;100592.19;5001457;28;20034;-80
2021/07/02 01:00:21;;;;;;;3.70;2.60;;;;;;;14.63;86.38;100596.81;5012892;28;20439;-79
2021/07/02 01:02:46;;;;;;;4.50;2.80;;;;;;;14.67;86.75;100594.63;5011472;28;20507;-80
2021/07/02 01:05:12;;;;;;;3.50;2.65;;;;;;;14.67;86.56;100591.94;5008251;28;20038;-80
2021/07/02 01:07:40;;;;;;;3.08;2.50;;;;;;;14.68;86.01;100588.28;5023017;28;20105;-79
2021/07/02 01:10:06;;;;;;;3.95;2.60;;;;;;;14.69;86.53;100587.28;5032427;28;20040;-79
2021/07/02 01:12:31;;;;;;;3.50;2.55;;;;;;;14.73;86.17;100588.59;5030949;28;20029;-79
2021/07/02 01:14:56;;;;;;;2.85;2.20;;;;;;;14.76;86.06;100582.09;5030223;28;20034;-80
2021/07/02 01:17:22;;;;;;;2.90;2.13;;;;;;;14.77;85.92;100583.72;5031133;28;20025;-80
2021/07/02 01:19:52;;;;;;;3.00;2.10;;;;;;;14.79;85.83;100579.88;5031700;28;20465;-79
2021/07/02 01:22:25;;;;;;;3.25;2.15;;;;;;;14.85;85.45;100583.69;5030401;28;20087;-80
2021/07/02 01:24:55;;;;;;;3.00;2.13;;;;;;;14.89;85.42;100581.47;5040404;28;20029;-80
2021/07/02 01:27:21;;;;;;;2.67;2.13;;;;;;;14.92;85.63;100573.97;5031274;28;20037;-80
2021/07/02 01:29:48;;;;;;;3.47;2.58;;;;;;;14.93;86.27;100575.63;5033093;28;20049;-81
2021/07/02 01:32:14;;;;;;;3.50;2.60;;;;;;;14.94;86.31;100573.78;5027471;28;20030;-81
2021/07/02 01:34:40;;;;;;;3.83;2.83;;;;;;;14.91;86.77;100574.97;5036196;28;20029;-81
2021/07/02 01:37:05;;;;;;;3.60;2.65;;;;;;;14.94;86.78;100579.94;5036933;28;20547;-80
2021/07/02 01:39:32;;;;;;;3.05;2.60;;;;;;;14.97;87.14;100574.25;5030786;28;20164;-81
2021/07/02 01:41:57;;;;;;;3.65;2.40;;;;;;;14.98;87.04;100577.75;5027334;28;20394;-80
2021/07/02 01:44:22;;;;;;;4.45;3.28;;;;;;;15.06;84.62;100581.19;5030472;28;20037;-80
2021/07/02 01:46:49;;;;;;;4.80;3.38;;;;;;;15.05;83.86;100570.69;5031960;28;20042;-80
2021/07/02 01:49:15;;;;;;;3.90;3.17;;;;;;;15.04;84.33;100569.88;5032012;28;20060;-80
2021/07/02 01:51:41;;;;;;;3.97;2.90;;;;;;;15.06;84.14;100575.00;5026166;28;20065;-80
2021/07/02 01:54:06;;;;;;;3.60;2.78;;;;;;;15.05;85.11;100563.53;5024073;28;20076;-81
2021/07/02 01:56:31;;;;;;;4.55;3.20;;;;;;;15.04;85.26;100575.19;5034834;28;20030;-80
2021/07/02 01:58:57;;;;;;;3.22;2.60;;;;;;;15.02;85.34;100571.88;5031540;28;20060;-80
2021/07/02 02:01:23;;;;;;;3.40;2.40;;;;;;;15.01;85.19;100566.72;5031400;28;20502;-80
2021/07/02 02:03:48;;;;;;;3.47;2.35;;;;;;;15.00;84.93;100565.91;5031513;28;20037;-81
2021/07/02 02:06:14;;;;;;;4.35;2.45;;;;;;;15.00;85.19;100559.75;5030748;28;20091;-80
2021/07/02 02:08:39;;;;;;;3.45;2.33;;;;;;;15.01;84.80;100574.72;5040905;28;20506;-80
2021/07/02 02:11:04;;;;;;;3.80;2.10;;;;;;;15.04;84.50;100572.53;5018943;28;20510;-80
2021/07/02 02:13:30;;;;;;;3.08;2.05;;;;;;;15.05;84.33;100571.50;5046724;28;20063;-79
2021/07/02 02:15:55;;;;;;;3.92;3.08;;;;;;;15.08;83.83;100565.81;5029811;28;20040;-79
2021/07/02 02:18:21;;;;;;;3.60;2.50;;;;;;;15.08;83.95;100565.00;5050188;28;20155;-79
2021/07/02 02:20:47;;;;;;;3.33;2.55;;;;;;;15.07;83.92;100571.34;5033310;28;20053;-80
2021/07/02 02:23:12;;;;;;;3.22;2.30;;;;;;;15.08;84.21;100571.16;5023715;28;20034;-80
2021/07/02 02:25:37;;;;;;;3.15;2.28;;;;;;;15.09;84.58;100566.66;5031667;28;20030;-79
2021/07/02 02:28:03;;;;;;;3.10;2.30;;;;;;;15.08;84.50;100573.81;5033965;28;20105;-80
2021/07/02 02:30:28;;;;;;;3.67;2.47;;;;;;;15.08;84.41;100563.16;5024429;28;20435;-80
2021/07/02 02:32:54;;;;;;;3.50;2.70;;;;;;;15.09;84.70;100572.00;5034683;28;20490;-79
2021/07/02 02:35:21;;;;;;;3.75;2.80;;;;;;;15.06;84.87;100567.88;5030077;28;20030;-81
2021/07/02 02:37:46;;;;;;;3.80;2.80;;;;;;;15.04;85.05;100569.88;5029771;28;20034;-80
2021/07/02 02:40:12;;;;;;;4.03;2.80;;;;;;;15.01;85.43;100559.56;5029375;28;20044;-80
2021/07/02 02:42:37;;;;;;;3.47;2.70;;;;;;;15.01;85.55;100564.06;5035044;28;20637;-79
2021/07/02 02:45:04;;;;;;;3.47;2.45;;;;;;;15.02;85.37;100563.06;5029609;28;20108;-80
2021/07/02 02:47:29;;;;;;;3.60;2.75;;;;;;;15.00;85.74;100557.91;5037539;28;20123;-80
2021/07/02 02:49:54;;;;;;;4.60;2.53;;;;;;;15.02;86.47;100560.41;5034222;28;20529;-80
2021/07/02 02:52:19;;;;;;;4.10;2.70;;;;;;;15.03;86.70;100565.53;5035734;28;20038;-79
2021/07/02 02:54:45;;;;;;;3.65;2.55;;;;;;;15.05;86.24;100560.88;5035605;28;20506;-81
2021/07/02 02:57:10;;;;;;;3.58;2.80;;;;;;;15.04;87.16;100567.22;5028694;28;20096;-80
2021/07/02 02:59:37;;;;;;;3.40;2.45;;;;;;;15.03;86.44;100565.53;5033491;28;20120;-80
2021/07/02 03:02:06;;;;;;;3.90;2.47;;;;;;;15.02;86.36;100563.91;5030435;28;20509;-80
2021/07/02 03:04:35;;;;;;;4.28;2.83;;;;;;;15.03;86.77;100567.38;5038392;28;20041;-81
2021/07/02 03:07:02;;;;;;;3.58;2.80;;;;;;;15.02;86.60;100571.06;5031141;28;20042;-79
2021/07/02 03:09:27;;;;;;;3.40;2.63;;;;;;;15.01;86.40;100572.88;5032247;28;20030;-80
2021/07/02 03:11:52;;;;;;;4.40;3.40;;;;;;;14.97;86.78;100576.94;5015270;28;20037;-80
2021/07/02 03:14:21;;;;;;;5.20;3.30;;;;;;;14.95;86.79;100576.28;5016777;28;20040;-80
2021/07/02 03:16:48;;;;;;;3.67;2.75;;;;;;;14.94;86.62;100569.28;5012882;28;20076;-80
2021/07/02 03:19:14;;;;;;;4.35;2.90;;;;;;;14.95;86.57;100575.44;5029409;28;20099;-81
2021/07/02 03:21:39;;;;;;;4.60;3.05;;;;;;;14.93;86.78;100580.94;5016916;28;20061;-80
2021/07/02 03:24:06;;;;;;;4.03;2.85;;;;;;;14.95;86.50;100581.59;5009806;28;20054;-80
2021/07/02 03:26:31;;;;;;;4.20;3.08;;;;;;;14.96;86.32;100585.09;5006884;28;20038;-80
2021/07/02 03:28:56;;;;;;;4.07;2.95;;;;;;;14.95;86.60;100586.91;5009784;28;20065;-80
2021/07/02 03:31:22;;;;;;;3.65;2.78;;;;;;;14.95;86.42;100584.25;5013851;28;20033;-80
2021/07/02 03:33:47;;;;;;;3.35;2.65;;;;;;;14.98;86.52;100586.56;5033711;28;20328;-79
2021/07/02 03:36:12;;;;;;;3.65;2.60;;;;;;;15.01;85.79;100594.19;5039207;28;20113;-80
2021/07/02 03:38:38;;;;;;;4.30;3.13;;;;;;;15.01;85.97;100588.03;5034745;28;20048;-79
2021/07/02 03:41:03;;;;;;;3.78;2.80;;;;;;;15.01;85.95;100590.69;5033973;28;20029;-80
2021/07/02 03:43:28;;;;;;;5.13;3.88;;;;;;;15.05;85.22;100592.81;5040586;28;20026;-80
2021/07/02 03:45:54;;;;;;;4.85;3.50;;;;;;;15.05;85.20;100597.31;5030522;28;20041;-80
2021/07/02 03:48:19;;;;;;;4.20;3.10;;;;;;;15.05;85.11;100602.66;5032693;28;20033;-81
2021/07/02 03:50:44;;;;;;;4.47;3.10;;;;;;;15.06;84.92;100601.63;5027824;28;20034;-80
2021/07/02 03:53:10;;;;;;;6.90;3.92;;;;;;;15.06;84.47;100599.81;5037889;28;20037;-79
2021/07/02 03:55:35;;;;;;;6.03;4.20;;;;;;;15.00;84.66;100591.72;5032720;28;20510;-80
2021/07/02 03:58:02;;;;;;;5.75;3.97;;;;;;;15.02;84.21;100593.19;5029239;28;20124;-80
2021/07/02 04:00:27;;;;;;;4.53;3.58;;;;;;;14.98;84.62;100591.88;5048047;28;20247;-80
2021/07/02 04:02:53;;;;;;;5.32;3.72;;;;;;;14.95;84.64;100594.09;5032509;28;20092;-79
2021/07/02 04:05:18;;;;;;;5.75;3.80;;;;;;;14.95;84.64;100602.06;5031085;28;20171;-80
2021/07/02 04:07:43;;;;;;;5.03;3.92;;;;;;;14.95;84.70;100594.91;5023543;28;20038;-79
2021/07/02 04:10:09;;;;;;;4.65;3.22;;;;;;;14.95;85.15;100597.56;5033666;28;20036;-79
2021/07/02 04:12:34;;;;;;;6.00;3.55;;;;;;;14.97;84.42;100598.22;5033619;28;20037;-80
2021/07/02 04:15:00;;;;;;;3.95;3.05;;;;;;;14.99;84.25;100601.53;5034385;28;20763;-79
2021/07/02 04:17:25;;;;;;;5.28;3.80;;;;;;;15.01;84.14;100604.81;5043334;28;20201;-80
2021/07/02 04:19:50;;;;;;;6.32;4.25;;;;;;;14.96;84.15;100609.03;5024244;28;20033;-79
2021/07/02 04:22:16;;;;;;;5.55;4.15;;;;;;;14.93;84.39;100604.09;5032370;28;20044;-80
2021/07/02 04:24:41;;;;;;;5.70;4.15;;;;;;;14.94;84.11;100609.22;5033627;28;20061;-80
2021/07/02 04:27:06;;;;;;;6.07;4.50;;;;;;;14.95;84.23;100605.56;5027422;28;20041;-79
2021/07/02 04:29:32;;;;;;;5.85;4.40;;;;;;;14.93;84.75;100596.91;5033502;28;20038;-81
2021/07/02 04:31:57;;;;;;;5.80;4.40;;;;;;;14.92;84.43;100599.75;5024412;28;20033;-80
2021/07/02 04:34:23;;;;;;;5.82;3.97;;;;;;;14.94;84.33;100609.22;5032287;28;20165;-81
2021/07/02 04:36:48;;;;;;;6.47;4.20;;;;;;;14.89;84.98;100605.44;5043265;28;20052;-79
2021/07/02 04:39:14;;;;;;;6.55;4.50;;;;;;;14.87;84.73;100605.59;5041412;28;20049;-80
2021/07/02 04:41:40;;;;;;;5.32;3.90;;;;;;;14.87;84.78;100605.59;5029557;28;20699;-80
2021/07/02 04:44:05;;;;;;;6.20;4.13;;;;;;;14.85;84.70;100603.13;5027727;28;20045;-80
2021/07/02 04:46:31;;;;;;;5.45;3.72;;;;;;;14.82;85.01;100610.63;5039737;28;20498;-81
2021/07/02 04:48:56;;;;;;;5.80;4.45;;;;;;;14.77;86.16;100615.66;5032887;28;20045;-80
2021/07/02 04:51:22;;;;;;;5.45;4.28;;;;;;;14.72;86.04;100612.72;5040893;28;20502;-81
2021/07/02 04:53:47;;;;;;;4.43;3.45;;;;;;;14.74;86.11;100621.34;5045799;28;20097;-80
2021/07/02 04:56:13;;;;;;;6.45;4.10;;;;;;;14.80;85.37;100620.63;5024031;28;20066;-79
2021/07/02 04:58:40;;;;;;;5.63;4.20;;;;;;;14.83;85.54;100625.63;5023976;28;20034;-81
2021/07/02 05:01:06;;;;;;;5.97;4.60;;;;;;;14.87;85.54;100626.91;5013221;28;20042;-80
2021/07/02 05:03:31;;;;;;;6.13;4.32;;;;;;;14.89;85.54;100624.91;5025174;28;20121;-80
2021/07/02 05:05:57;;;;;;;7.75;5.25;;;;;;;14.94;85.38;100629.69;5005461;28;20054;-80
2021/07/02 05:08:24;;;;;;;6.18;4.75;;;;;;;14.99;85.85;100633.50;5000587;28;20034;-79
2021/07/02 05:10:49;;;;;;;8.32;5.60;;;;;;;15.11;84.92;100628.59;5017113;28;20026;-80
2021/07/02 05:13:15;;;;;;;11.60;6.28;;;;;;;15.05;85.88;100638.09;5017260;28;20034;-80
2021/07/02 05:15:40;;;;;;;7.63;5.80;;;;;;;15.11;85.09;100628.59;5008863;28;20111;-80
2021/07/02 05:18:05;;;;;;;8.50;6.15;;;;;;;15.16;85.23;100630.69;5016382;28;20041;-80
2021/07/02 05:20:31;;;;;;;9.13;6.32;;;;;;;15.20;85.13;100637.31;5013015;28;20407;-80
2021/07/02 05:22:56;;;;;;;9.88;6.45;;;;;;;15.30;85.45;100627.22;5009397;28;20490;-81
2021/07/02 05:25:21;;;;;;;7.32;5.80;;;;;;;15.25;85.01;100629.59;5012867;28;20038;-80
2021/07/02 05:27:47;;;;;;;8.93;5.60;;;;;;;15.34;84.92;100631.19;5014002;28;20471;-80
2021/07/02 05:30:13;;;;;;;10.18;6.75;;;;;;;15.43;85.00;100632.78;5009497;28;20448;-79
2021/07/02 05:32:38;;;;;;;8.25;6.00;;;;;;;15.47;84.29;100644.75;5010798;28;20041;-79
2021/07/02 05:35:05;;;;;;;7.72;5.70;;;;;;;15.57;84.12;100633.00;5013733;28;20042;-79
2021/07/02 05:37:30;;;;;;;8.13;6.15;;;;;;;15.53;84.59;100639.69;5013478;28;20102;-80
2021/07/02 05:39:56;;;;;;;10.00;6.65;;;;;;;15.62;84.21;100631.44;5008082;28;20065;-80
2021/07/02 05:42:24;;;;;;;11.90;6.28;;;;;;;15.74;83.73;100639.03;5011981;28;20049;-79
2021/07/02 05:44:49;;;;;;;10.65;6.55;;;;;;;15.70;83.50;100638.53;5007427;28;20034;-80
2021/07/02 05:47:15;;;;;;;10.52;7.28;;;;;;;15.78;82.91;100633.16;5016615;28;20160;-80
2021/07/02 05:49:40;;;;;;;9.30;6.53;;;;;;;15.78;83.29;100630.47;5013537;28;20059;-81
2021/07/02 05:52:06;;;;;;;10.07;6.07;;;;;;;15.92;83.40;100634.97;5022542;28;20068;-81
2021/07/02 05:54:31;;;;;;;9.60;5.63;;;;;;;16.18;82.79;100635.50;5015413;28;20096;-81
2021/07/02 05:56:57;;;;;;;8.13;5.95;;;;;;;16.55;81.63;100635.34;5017892;28;20084;-81
2021/07/02 05:59:22;;;;;;;8.70;5.63;;;;;;;16.94;80.42;100636.78;5011119;28;20041;-81
2021/07/02 06:01:47;;;;;;;8.02;5.70;;;;;;;17.30;81.19;100646.56;5013152;28;20085;-81
2021/07/02 06:04:13;;;;;;;8.45;5.47;;;;;;;17.64;78.55;100647.69;5015385;28;20479;-80
2021/07/02 06:06:38;;;;;;;8.38;5.53;;;;;;;18.02;78.97;100652.69;5010158;28;20042;-81
2021/07/02 06:09:04;;;;;;;8.18;5.63;;;;;;;18.24;75.95;100653.41;5009078;28;20487;-81
2021/07/02 06:11:29;;;;;;;6.97;5.28;;;;;;;18.52;76.51;100652.47;5015156;28;20490;-82
2021/07/02 06:13:54;;;;;;;8.55;5.75;;;;;;;18.85;74.07;100658.78;5027573;28;20034;-81
2021/07/02 06:16:20;;;;;;;8.88;5.18;;;;;;;19.19;70.90;100656.16;5013420;28;20128;-81
2021/07/02 06:18:45;;;;;;;8.00;5.15;;;;;;;19.30;69.85;100660.88;5009145;28;20038;-81
2021/07/02 06:21:10;;;;;;;9.88;6.22;;;;;;;19.06;71.61;100656.94;5019298;28;20037;-81
2021/07/02 06:23:38;;;;;;;7.68;5.47;;;;;;;19.56;70.38;100661.91;5023698;28;20038;-81
2021/07/02 06:26:05;;;;;;;7.35;5.68;;;;;;;19.81;69.26;100662.13;5024264;28;20038;-81
2021/07/02 06:28:31;;;;;;;8.60;5.70;;;;;;;19.88;69.45;100665.63;5017655;28;20038;-81
2021/07/02 06:30:57;;;;;;;8.07;5.70;;;;;;;20.19;68.61;100656.88;5013277;28;20057;-81
2021/07/02 06:33:23;;;;;;;9.10;5.72;;;;;;;20.00;67.18;100657.72;5017919;28;20041;-80
2021/07/02 06:35:49;;;;;;;7.93;5.75;;;;;;;20.07;67.51;100663.91;5018573;28;20112;-81
2021/07/02 06:38:16;;;;;;;8.10;5.43;;;;;;;19.90;66.53;100667.06;5017392;28;20056;-81
2021/07/02 06:40:42;;;;;;;7.70;6.03;;;;;;;19.82;67.88;100663.78;5034417;28;20073;-81
2021/07/02 06:43:07;;;;;;;8.02;6.00;;;;;;;19.91;67.07;100666.03;5016515;28;20034;-82
2021/07/02 06:45:32;;;;;;;7.97;5.82;;;;;;;19.72;67.60;100661.53;5017342;28;20461;-82
2021/07/02 06:48:04;;;;;;;8.30;5.60;;;;;;;20.11;66.93;100662.47;5013421;28;20117;-81
2021/07/02 06:50:32;;;;;;;7.57;6.07;;;;;;;20.57;66.44;100666.88;5018136;28;20038;-81
2021/07/02 06:52:57;;;;;;;10.85;6.60;;;;;;;20.61;65.31;100667.25;5015161;28;20038;-83
2021/07/02 06:55:24;;;;;;;8.50;6.57;;;;;;;20.63;64.48;100674.06;5021367;28;20429;-81
2021/07/02 06:57:49;;;;;;;8.98;6.22;;;;;;;20.28;65.98;100666.31;5020100;28;20034;-82
2021/07/02 07:00:19;;;;;;;7.25;5.43;;;;;;;20.84;63.62;100670.22;5033485;28;20451;-82
2021/07/02 07:02:46;;;;;;;8.07;6.00;;;;;;;21.66;61.48;100675.63;5021470;28;20049;-81
2021/07/02 07:05:13;;;;;;;9.02;5.60;;;;;;;21.69;63.20;100666.28;5019211;28;20450;-81
2021/07/02 07:07:38;;;;;;;8.75;6.45;;;;;;;22.11;59.37;100674.56;5008429;28;20038;-82
2021/07/02 07:10:04;;;;;;;7.50;5.28;;;;;;;21.77;58.79;100664.13;5014108;28;20189;-82
2021/07/02 07:12:29;;;;;;;8.10;5.55;;;;;;;21.56;59.04;100664.56;5017954;28;20037;-82
2021/07/02 07:14:55;;;;;;;7.88;5.45;;;;;;;20.94;61.44;100675.94;5025730;28;20040;-83
2021/07/02 07:17:20;;;;;;;7.78;5.68;;;;;;;21.31;61.71;100673.44;5041391;28;20041;-81
2021/07/02 07:19:47;;;;;;;6.65;4.57;;;;;;;21.85;62.45;100680.00;5035349;28;20032;-81
2021/07/02 07:22:12;;;;;;;6.68;4.72;;;;;;;22.62;60.29;100681.41;5043611;28;20120;-81
2021/07/02 07:24:38;;;;;;;6.68;4.97;;;;;;;22.57;56.31;100679.44;5040415;28;20232;-81
2021/07/02 07:27:04;;;;;;;6.43;4.80;;;;;;;22.04;57.92;100686.22;5038302;28;20037;-80
2021/07/02 07:29:29;;;;;;;7.25;5.20;;;;;;;21.78;56.62;100689.19;5041413;28;20659;-80
2021/07/02 07:31:55;;;;;;;5.32;4.50;;;;;;;21.42;60.14;100690.75;5047270;28;20061;-80
2021/07/02 07:37:08;;;;;;;6.97;4.78;;;;;;;22.54;53.19;100693.34;5034896;28;20048;-81
2021/07/02 07:39:34;;;;;;;5.47;3.80;;;;;;;23.23;55.73;100698.44;5036639;28;20033;-81
2021/07/02 07:41:59;;;;;;;7.43;4.72;;;;;;;23.71;51.58;100703.63;5032281;28;20046;-81
2021/07/02 07:44:24;;;;;;;5.75;4.07;;;;;;;24.03;49.06;100702.50;5039103;28;20147;-81
2021/07/02 07:46:50;;;;;;;6.20;4.03;;;;;;;24.66;47.03;100698.97;5028230;28;20046;-81
2021/07/02 07:49:15;;;;;;;5.32;3.50;;;;;;;24.47;49.67;100711.00;5033486;28;20090;-81
2021/07/02 07:51:54;;;;;;;6.00;3.53;;;;;;;24.63;46.72;100712.16;5027233;28;20061;-81
2021/07/02 07:54:20;;;;;;;4.53;3.15;;;;;;;24.37;45.96;100704.31;5037236;28;20116;-81
2021/07/02 07:56:52;;;;;;;5.47;3.35;;;;;;;25.12;44.51;100699.81;5038476;28;20072;-81
2021/07/02 07:59:20;;;;;;;4.50;2.97;;;;;;;25.32;46.53;100698.53;5039118;28;20037;-82
2021/07/02 08:01:46;;;;;;;6.75;3.45;;;;;;;25.59;43.44;100699.50;5038013;28;20152;-81
2021/07/02 08:04:14;;;;;;;4.90;2.88;;;;;;;25.54;41.41;100704.84;5032799;28;20153;-81
2021/07/02 08:06:40;;;;;;;3.88;2.78;;;;;;;25.91;40.28;100701.66;4979893;28;1158618;-81
2021/07/02 08:09:06;;;;;;;3.55;2.50;;;;;;;25.48;36.32;100708.56;5029472;28;20045;-82
2021/07/02 08:11:33;;;;;;;5.35;2.78;;;;;;;24.91;37.67;100697.81;5035462;28;20538;-81
2021/07/02 08:13:59;;;;;;;5.82;2.88;;;;;;;25.19;38.08;100702.38;5028595;28;20070;-80
2021/07/02 08:16:25;;;;;;;3.60;2.30;;;;;;;25.76;37.59;100712.22;5037279;28;20037;-80
2021/07/02 08:18:51;;;;;;;4.95;2.63;;;;;;;25.59;38.68;100709.53;5041215;28;20102;-80
2021/07/02 08:21:16;;;;;;;3.97;2.72;;;;;;;25.87;41.10;100713.22;5035117;28;20048;-80
2021/07/02 08:23:41;;;;;;;5.32;3.33;;;;;;;26.03;36.58;100710.50;5029632;28;20434;-80
2021/07/02 08:26:07;;;;;;;4.90;3.25;;;;;;;26.38;38.94;100713.91;5051534;28;20052;-81
2021/07/02 08:31:17;;;;;;;4.80;3.05;;;;;;;26.22;36.47;100710.19;5035496;28;20662;-80
2021/07/02 08:33:42;;;;;;;5.30;3.08;;;;;;;26.38;38.92;100709.28;5058731;28;20042;-81
2021/07/02 08:36:07;;;;;;;4.38;2.97;;;;;;;26.61;38.24;100705.53;5036005;28;20034;-81
2021/07/02 08:38:33;;;;;;;6.82;3.30;;;;;;;26.49;34.92;100716.50;5034196;28;20030;-79
2021/07/02 08:40:58;;;;;;;6.10;3.58;;;;;;;27.30;35.89;100712.22;5035035;28;20051;-80
2021/07/02 08:43:23;;;;;;;4.75;3.65;;;;;;;27.74;35.39;100710.13;5035066;28;20121;-80
2021/07/02 08:45:49;;;;;;;5.25;3.88;;;;;;;26.86;32.83;100713.16;5032479;28;20091;-80
2021/07/02 08:48:21;;;;;;;4.28;3.20;;;;;;;27.46;35.82;100726.72;5037802;28;20037;-80
2021/07/02 08:50:46;;;;;;;5.32;3.05;;;;;;;27.81;33.85;100723.44;5028294;28;20041;-80
2021/07/02 08:53:12;;;;;;;4.93;3.50;;;;;;;27.68;36.91;100730.16;5028129;28;20045;-80
2021/07/02 08:55:39;;;;;;;5.05;3.67;;;;;;;27.30;34.11;100725.78;5039048;28;20088;-80
2021/07/02 08:58:12;;;;;;;4.75;3.50;;;;;;;26.87;36.42;100725.63;5056543;28;20034;-79
2021/07/02 09:00:38;;;;;;;5.50;3.75;;;;;;;26.84;36.78;100731.56;5022160;28;20041;-79
2021/07/02 09:03:43;;;;;;;5.00;3.38;;;;;;;27.68;36.20;100732.88;5028489;28;20533;-80
2021/07/02 09:06:08;;;;;;;6.07;4.32;;;;;;;27.04;33.58;100720.09;5032167;28;20049;-79
2021/07/02 09:08:35;;;;;;;6.00;4.03;;;;;;;27.14;34.93;100727.50;5033958;28;20045;-79
2021/07/02 09:11:01;;;;;;;6.82;4.63;;;;;;;26.72;33.97;100727.34;5051900;28;20288;-80
2021/07/02 09:13:40;;;;;;;5.65;3.92;;;;;;;25.38;36.04;100730.03;5028217;28;20050;-80
2021/07/02 09:16:24;;;;;;;4.75;3.67;;;;;;;26.26;38.87;100722.97;5029313;28;20034;-80
2021/07/02 09:18:51;;;;;;;4.78;3.75;;;;;;;26.71;36.54;100725.72;5033257;28;20045;-81
2021/07/02 09:21:28;;;;;;;5.63;3.72;;;;;;;25.88;36.69;100714.84;5030183;28;20437;-81
2021/07/02 09:23:58;;;;;;;5.53;3.83;;;;;;;25.68;38.59;100728.91;5037974;28;20034;-80
2021/07/02 09:26:38;;;;;;;6.28;3.63;;;;;;;25.54;38.87;100723.00;5033575;28;20033;-80
2021/07/02 09:29:22;;;;;;;5.77;4.00;;;;;;;24.97;40.29;100729.28;5028486;28;20043;-80
2021/07/02 09:31:59;;;;;;;5.85;3.95;;;;;;;25.16;38.64;100725.31;5031886;28;20065;-80
2021/07/02 09:34:48;;;;;;;6.03;3.95;;;;;;;25.11;39.39;100725.22;5036998;28;20073;-80
2021/07/02 09:37:25;;;;;;;6.47;4.22;;;;;;;25.19;39.51;100722.16;5025086;28;20030;-79
2021/07/02 09:39:50;;;;;;;5.57;3.53;;;;;;;25.18;40.71;100725.91;5033149;28;20042;-79
2021/07/02 09:42:23;;;;;;;4.95;3.88;;;;;;;24.92;39.64;100732.72;5022714;28;20043;-79
2021/07/02 09:45:08;;;;;;;4.97;3.92;;;;;;;25.36;40.58;100724.88;5036328;28;20043;-78
2021/07/02 09:47:35;;;;;;;4.25;3.63;;;;;;;24.75;38.62;100732.66;5039316;28;20455;-79
2021/07/02 09:50:23;;;;;;;5.22;3.92;;;;;;;24.19;40.10;100726.06;5038733;28;20041;-79
2021/07/02 09:52:56;;;;;;;7.07;4.70;;;;;;;23.88;40.77;100725.41;5035773;28;20068;-78
2021/07/02 09:55:33;;;;;;;5.88;4.28;;;;;;;23.83;41.22;100724.47;5041651;28;20258;-79
2021/07/02 09:58:08;;;;;;;6.30;4.20;;;;;;;24.02;43.80;100723.28;5031092;28;20780;-79
2021/07/02 10:00:42;;;;;;;5.50;3.85;;;;;;;24.53;42.29;100723.59;5035518;28;20037;-79
2021/07/02 10:03:08;;;;;;;5.88;3.97;;;;;;;24.65;41.19;100727.06;5038893;28;20034;-78
2021/07/02 10:06:14;;;;;;;5.20;4.00;;;;;;;24.01;40.50;100720.81;5036486;28;20033;-79
2021/07/02 10:08:40;;;;;;;5.57;4.43;;;;;;;23.69;42.91;100727.38;5032851;28;20041;-79
2021/07/02 10:11:08;;;;;;;4.40;3.45;;;;;;;23.54;43.70;100727.00;5033888;28;20037;-79
2021/07/02 10:13:40;;;;;;;5.25;4.00;;;;;;;24.05;42.74;100722.81;5045511;28;20045;-79
2021/07/02 10:16:07;;;;;;;6.28;4.05;;;;;;;24.22;41.88;100731.03;5043942;28;20037;-79
2021/07/02 10:18:37;;;;;;;7.35;4.10;;;;;;;24.33;42.92;100727.44;5036253;28;20042;-79
2021/07/02 10:21:04;;;;;;;5.32;4.00;;;;;;;24.63;41.15;100725.66;5034426;28;20057;-78
2021/07/02 10:23:35;;;;;;;5.22;4.47;;;;;;;24.07;42.36;100727.97;5035275;28;20038;-79
2021/07/02 10:26:03;;;;;;;6.85;4.95;;;;;;;23.35;41.67;100733.53;5039826;28;20168;-79
2021/07/02 10:28:30;;;;;;;6.30;4.40;;;;;;;23.06;43.72;100727.94;5035494;28;20549;-78
2021/07/02 10:30:56;;;;;;;5.78;4.65;;;;;;;23.24;43.65;100735.13;5037121;28;20041;-80
2021/07/02 10:33:25;;;;;;;5.75;4.50;;;;;;;23.55;43.11;100731.34;5052043;28;20037;-79
2021/07/02 10:35:58;;;;;;;6.88;4.78;;;;;;;23.02;42.31;100734.84;5036923;28;20455;-79
2021/07/02 10:38:39;;;;;;;5.75;4.80;;;;;;;23.09;42.97;100735.56;5035273;28;20037;-79
2021/07/02 10:41:14;;;;;;;5.82;4.18;;;;;;;22.86;43.45;100741.69;5036812;28;20486;-79
2021/07/02 10:44:11;;;;;;;7.30;4.88;;;;;;;23.41;41.49;100729.91;5024814;28;20128;-80
2021/07/02 10:46:38;;;;;;;4.95;4.07;;;;;;;23.18;44.37;100736.06;5033814;28;20041;-79
2021/07/02 10:49:08;;;;;;;7.55;4.90;;;;;;;23.02;44.24;100732.94;5048439;28;20029;-80
2021/07/02 10:51:39;;;;;;;5.13;4.00;;;;;;;23.24;44.40;100721.63;5040601;28;20033;-80
2021/07/02 10:54:13;;;;;;;6.80;4.68;;;;;;;23.66;45.41;100730.53;5044904;28;20173;-80
2021/07/02 10:56:44;;;;;;;6.20;4.20;;;;;;;23.68;42.52;100731.13;5017887;28;20100;-79
2021/07/02 10:59:12;;;;;;;5.23;3.90;;;;;;;23.56;42.87;100730.28;5017560;28;20041;-79
2021/07/02 11:01:57;;;;;;;6.10;4.70;;;;;;;23.74;43.21;100730.22;5012220;28;20084;-79
2021/07/02 11:04:41;;;;;;;5.28;4.13;;;;;;;23.81;43.17;100732.81;5019953;28;20042;-79
2021/07/02 11:07:22;;;;;;;7.22;4.82;;;;;;;23.95;41.67;100733.38;5015023;28;20043;-79
2021/07/02 11:09:59;;;;;;;5.50;4.47;;;;;;;24.41;44.95;100731.69;5015134;28;20106;-80
2021/07/02 11:12:32;;;;;;;6.47;4.85;;;;;;;23.88;41.09;100738.06;5020912;28;20048;-79
2021/07/02 11:14:58;;;;;;;5.97;4.70;;;;;;;23.52;41.51;100740.72;5013310;28;20104;-79
2021/07/02 11:17:28;;;;;;;6.55;4.70;;;;;;;23.80;42.21;100733.84;5043903;28;20034;-79
2021/07/02 11:20:10;;;;;;;7.33;4.70;;;;;;;23.92;42.13;100731.16;5024317;28;20049;-78
2021/07/02 11:22:57;;;;;;;6.40;4.55;;;;;;;23.98;41.74;100727.53;5026006;28;20785;-79
2021/07/02 11:25:35;;;;;;;5.38;4.30;;;;;;;24.52;41.44;100728.16;5035631;28;20037;-79
2021/07/02 11:28:15;;;;;;;5.63;4.30;;;;;;;24.71;42.60;100731.50;5024847;28;20054;-79
2021/07/02 11:30:43;;;;;;;5.30;4.17;;;;;;;24.89;44.42;100719.69;5026939;28;20057;-79
2021/07/02 11:33:09;;;;;;;6.25;4.53;;;;;;;25.23;42.88;100721.66;5015876;28;20045;-78